createdAt,value
2023-02-23T00:57:29.402Z,8.31
2023-02-23T00:59:59.880Z,8.36
2023-02-23T01:02:33.291Z,8.21
2023-02-23T01:05:11.493Z,8.21
2023-02-23T01:07:41.577Z,8.27
2023-02-23T01:10:25.153Z,8.11
2023-02-23T01:12:55.576Z,8.22
2023-02-23T01:15:28.516Z,8.19
2023-02-23T01:17:58.422Z,8.29
2023-02-23T01:20:28.882Z,8.24
2023-02-23T01:22:58.381Z,8.15
2023-02-23T01:25:31.463Z,8.10
2023-02-23T01:28:02.292Z,8.10
2023-02-23T01:30:32.751Z,8.15
2023-02-23T01:33:04.246Z,8.23
2023-02-23T01:35:35.274Z,8.32
2023-02-23T01:38:05.285Z,8.41
2023-02-23T01:40:37.958Z,8.43
2023-02-23T01:43:12.504Z,8.52
2023-02-23T01:45:44.246Z,8.45
2023-02-23T01:48:21.047Z,8.41
2023-02-23T01:51:03.047Z,8.42
2023-02-23T01:53:34.983Z,8.43
2023-02-23T01:56:15.478Z,8.40
2023-02-23T01:58:49.447Z,8.35
2023-02-23T02:01:19.440Z,8.30
2023-02-23T02:03:59.191Z,8.32
2023-02-23T02:06:32.223Z,8.43
2023-02-23T02:09:11.226Z,8.45
2023-02-23T02:11:44.798Z,8.51
2023-02-23T02:14:17.420Z,8.64
2023-02-23T02:17:14.111Z,8.79
2023-02-23T02:19:46.917Z,8.81
2023-02-23T02:22:39.422Z,8.75
2023-02-23T02:25:21.327Z,8.55
2023-02-23T02:28:09.672Z,8.57
2023-02-23T02:31:20.277Z,8.54
2023-02-23T02:34:19.701Z,8.48
2023-02-23T02:37:09.034Z,8.43
2023-02-23T02:39:47.228Z,8.47
2023-02-23T02:42:23.198Z,8.50
2023-02-23T02:45:11.194Z,8.47
2023-02-23T02:47:53.496Z,8.45
2023-02-23T02:50:41.142Z,8.42
2023-02-23T02:53:15.732Z,8.56
2023-02-23T02:55:45.221Z,8.57
2023-02-23T02:58:18.565Z,8.53
2023-02-23T03:01:08.635Z,8.55
2023-02-23T03:03:59.052Z,8.53
2023-02-23T03:06:54.374Z,8.57
2023-02-23T03:09:52.272Z,8.56
2023-02-23T03:12:49.752Z,8.56
2023-02-23T03:15:57.208Z,8.50
2023-02-23T03:19:05.093Z,8.56
2023-02-23T03:22:04.603Z,8.45
2023-02-23T03:24:59.033Z,8.44
2023-02-23T03:27:56.533Z,8.50
2023-02-23T03:31:14.612Z,8.48
2023-02-23T03:34:25.611Z,8.46
2023-02-23T03:37:22.270Z,8.34
2023-02-23T03:40:16.336Z,8.40
2023-02-23T03:43:04.594Z,8.43
2023-02-23T03:46:00.477Z,8.45
2023-02-23T03:48:49.143Z,8.50
2023-02-23T03:51:37.260Z,8.48
2023-02-23T03:54:38.172Z,8.48
2023-02-23T03:57:27.266Z,8.49
2023-02-23T04:00:18.347Z,8.58
2023-02-23T04:03:10.113Z,8.53
2023-02-23T04:06:00.139Z,8.66
2023-02-23T04:08:54.373Z,8.70
2023-02-23T04:11:56.562Z,8.73
2023-02-23T04:15:07.993Z,8.65
2023-02-23T04:17:39.238Z,8.69
2023-02-23T04:20:09.963Z,8.59
2023-02-23T04:22:40.864Z,8.66
2023-02-23T04:25:12.402Z,8.66
2023-02-23T04:27:44.477Z,8.69
2023-02-23T04:30:13.762Z,8.65
2023-02-23T04:32:44.885Z,8.69
2023-02-23T04:35:18.860Z,8.71
2023-02-23T04:37:49.652Z,8.61
2023-02-23T04:40:19.161Z,8.76
2023-02-23T04:42:49.898Z,8.71
2023-02-23T04:45:19.421Z,8.64
2023-02-23T04:47:48.719Z,8.58
2023-02-23T04:50:19.135Z,8.68
2023-02-23T04:52:49.147Z,8.71
2023-02-23T04:55:23.476Z,8.73
2023-02-23T04:57:57.989Z,8.79
2023-02-23T05:00:30.154Z,8.66
2023-02-23T05:03:00.118Z,8.67
2023-02-23T05:05:30.913Z,8.61
2023-02-23T05:08:01.754Z,8.63
2023-02-23T05:10:38.639Z,8.58
2023-02-23T05:13:10.094Z,8.63
2023-02-23T05:15:41.066Z,8.57
2023-02-23T05:18:13.505Z,8.58
2023-02-23T05:20:47.915Z,8.59
2023-02-23T05:23:17.414Z,8.62
2023-02-23T05:25:48.234Z,8.60
2023-02-23T05:28:20.679Z,8.59
2023-02-23T05:30:50.755Z,8.61
2023-02-23T05:33:23.743Z,8.78
2023-02-23T05:35:52.724Z,8.63
2023-02-23T05:38:23.592Z,8.72
2023-02-23T05:41:15.806Z,8.65
2023-02-23T05:43:47.205Z,8.77
2023-02-23T05:46:19.200Z,8.71
2023-02-23T05:48:58.353Z,8.55
2023-02-23T05:51:28.372Z,8.59
2023-02-23T05:53:58.013Z,8.63
2023-02-23T05:56:28.129Z,8.75
2023-02-23T05:58:59.173Z,8.82
2023-02-23T06:01:33.286Z,8.76
2023-02-23T06:04:06.495Z,8.77
2023-02-23T06:06:38.706Z,8.76
2023-02-23T06:09:12.596Z,8.87
2023-02-23T06:11:43.152Z,8.81
2023-02-23T06:14:13.175Z,8.87
2023-02-23T06:16:49.083Z,8.83
2023-02-23T06:19:19.559Z,8.86
2023-02-23T06:21:51.497Z,8.75
2023-02-23T06:24:22.403Z,8.74
2023-02-23T06:26:52.559Z,8.88
2023-02-23T06:29:24.428Z,8.66
2023-02-23T06:31:54.233Z,8.53
2023-02-23T06:34:23.778Z,8.57
2023-02-23T06:36:55.836Z,8.53
2023-02-23T06:39:32.214Z,8.55
2023-02-23T06:42:01.475Z,8.53
2023-02-23T06:44:31.695Z,8.38
2023-02-23T06:47:04.614Z,8.46
2023-02-23T06:49:34.192Z,8.29
2023-02-23T06:52:06.252Z,8.22
2023-02-23T06:54:38.952Z,8.14
2023-02-23T06:57:10.552Z,7.94
2023-02-23T06:59:42.335Z,7.88
2023-02-23T07:02:14.375Z,7.82
2023-02-23T07:04:44.569Z,7.79
2023-02-23T07:07:14.852Z,7.81
2023-02-23T07:09:45.371Z,7.61
2023-02-23T07:12:19.488Z,7.51
2023-02-23T07:14:49.049Z,7.47
2023-02-23T07:17:19.499Z,7.31
2023-02-23T07:22:39.901Z,7.01
2023-02-23T07:25:11.605Z,6.94
2023-02-23T07:27:43.326Z,6.89
2023-02-23T07:30:14.257Z,6.81
2023-02-23T07:32:47.019Z,6.83
2023-02-23T07:35:19.892Z,6.94
2023-02-23T07:37:51.185Z,6.94
2023-02-23T07:40:21.067Z,6.79
2023-02-23T07:42:50.296Z,6.74
2023-02-23T07:45:22.228Z,6.62
2023-02-23T07:47:53.146Z,6.66
2023-02-23T07:50:26.700Z,6.40
2023-02-23T07:52:56.026Z,6.58
2023-02-23T07:55:25.510Z,6.50
2023-02-23T07:57:56.100Z,6.18
2023-02-23T08:00:27.496Z,6.24
2023-02-23T08:03:03.368Z,6.34
2023-02-23T08:05:34.180Z,6.18
2023-02-23T08:08:05.111Z,6.40
2023-02-23T08:10:39.388Z,6.26
2023-02-23T08:13:17.687Z,6.06
2023-02-23T08:15:47.164Z,6.30
2023-02-23T08:18:16.574Z,6.03
2023-02-23T08:20:46.236Z,6.17
2023-02-23T08:23:20.473Z,6.32
2023-02-23T08:25:49.993Z,5.96
2023-02-23T08:28:23.303Z,6.09
2023-02-23T08:30:53.970Z,6.03
2023-02-23T08:33:25.582Z,6.01
2023-02-23T08:35:54.912Z,6.16
2023-02-23T08:38:25.333Z,6.04
2023-02-23T08:40:55.629Z,5.88
2023-02-23T08:43:25.582Z,5.56
2023-02-23T08:45:56.526Z,5.63
2023-02-23T08:48:27.731Z,5.59
2023-02-23T08:51:00.285Z,5.73
2023-02-23T08:53:30.693Z,5.49
2023-02-23T08:56:03.733Z,5.44
2023-02-23T08:58:34.030Z,5.48
2023-02-23T09:01:05.541Z,5.54
2023-02-23T09:03:39.787Z,5.48
2023-02-23T09:06:17.994Z,5.19
2023-02-23T09:08:48.770Z,5.09
2023-02-23T09:11:20.259Z,4.84
2023-02-23T09:13:50.317Z,4.78
2023-02-23T09:16:20.347Z,4.64
2023-02-23T09:18:49.630Z,4.91
2023-02-23T09:21:27.223Z,5.19
2023-02-23T09:23:58.369Z,5.26
2023-02-23T09:26:30.029Z,5.18
2023-02-23T09:29:00.432Z,4.98
2023-02-23T09:31:32.860Z,4.86
2023-02-23T09:34:02.752Z,4.70
2023-02-23T09:36:35.427Z,4.57
2023-02-23T09:39:07.780Z,4.73
2023-02-23T09:41:41.091Z,4.83
2023-02-23T09:44:40.556Z,4.96
2023-02-23T09:47:39.109Z,4.60
2023-02-23T09:50:25.378Z,4.34
2023-02-23T09:53:00.907Z,4.34
2023-02-23T09:55:31.955Z,4.54
2023-02-23T09:58:23.245Z,4.51
2023-02-23T10:01:30.757Z,4.28
2023-02-23T10:04:08.577Z,4.23
2023-02-23T10:06:42.019Z,4.27
2023-02-23T10:09:41.754Z,4.20
2023-02-23T10:12:18.756Z,4.08
2023-02-23T10:15:07.566Z,4.05
2023-02-23T10:17:53.455Z,3.91
2023-02-23T10:20:47.371Z,3.94
2023-02-23T10:23:34.036Z,3.82
2023-02-23T10:26:03.722Z,3.81
2023-02-23T10:28:37.089Z,3.73
2023-02-23T10:31:31.900Z,3.85
2023-02-23T10:34:06.450Z,3.87
2023-02-23T10:36:40.295Z,3.99
2023-02-23T10:39:10.134Z,3.81
2023-02-23T10:41:41.194Z,4.02
2023-02-23T10:44:30.236Z,3.94
2023-02-23T10:47:09.221Z,3.75
2023-02-23T10:49:48.624Z,3.73
2023-02-23T10:52:42.275Z,3.67
2023-02-23T10:55:26.420Z,3.43
2023-02-23T10:58:17.452Z,3.58
2023-02-23T11:01:01.779Z,3.59
2023-02-23T11:03:33.722Z,3.37
2023-02-23T11:06:04.692Z,3.43
2023-02-23T11:08:37.276Z,3.57
2023-02-23T11:11:16.931Z,3.37
2023-02-23T11:13:49.517Z,3.53
2023-02-23T11:16:27.694Z,3.60
2023-02-23T11:19:02.139Z,3.51
2023-02-23T11:21:39.352Z,3.67
2023-02-23T11:24:32.798Z,3.73
2023-02-23T11:27:07.416Z,3.62
2023-02-23T11:29:47.386Z,3.35
2023-02-23T11:32:20.036Z,3.21
2023-02-23T11:35:15.889Z,3.26
2023-02-23T11:37:47.628Z,3.48
2023-02-23T11:40:23.772Z,3.49
2023-02-23T11:43:19.611Z,3.53
2023-02-23T11:45:52.772Z,3.34
2023-02-23T11:48:32.331Z,3.37
2023-02-23T11:51:02.560Z,3.46
2023-02-23T11:53:41.129Z,3.67
2023-02-23T11:56:13.523Z,3.52
2023-02-23T11:58:56.881Z,3.64
2023-02-23T12:01:54.196Z,3.52
2023-02-23T12:04:38.973Z,3.51
2023-02-23T12:07:44.936Z,3.59
2023-02-23T12:10:27.119Z,3.45
2023-02-23T12:13:28.616Z,3.49
2023-02-23T12:16:03.091Z,3.45
2023-02-23T12:18:58.094Z,3.31
2023-02-23T12:21:39.964Z,3.30
2023-02-23T12:24:28.378Z,3.13
2023-02-23T12:27:18.971Z,3.08
2023-02-23T12:30:49.755Z,3.24
2023-02-23T12:33:23.112Z,3.22
2023-02-23T12:36:11.319Z,3.28
2023-02-23T12:39:02.090Z,3.21
2023-02-23T12:41:47.169Z,3.10
2023-02-23T12:44:30.788Z,3.01
2023-02-23T12:47:04.991Z,2.96
2023-02-23T12:49:48.663Z,3.07
2023-02-23T12:52:20.832Z,2.92
2023-02-23T12:54:50.075Z,3.05
2023-02-23T12:57:26.133Z,2.97
2023-02-23T12:59:59.580Z,2.95
2023-02-23T13:02:49.260Z,2.91
2023-02-23T13:05:51.124Z,2.86
2023-02-23T13:08:51.954Z,2.85
2023-02-23T13:11:40.874Z,2.96
2023-02-23T13:14:23.387Z,2.86
2023-02-23T13:17:14.119Z,2.73
2023-02-23T13:19:55.381Z,2.75
2023-02-23T13:22:27.978Z,2.68
2023-02-23T13:24:59.931Z,2.73
2023-02-23T13:27:38.634Z,2.65
2023-02-23T13:30:13.057Z,2.55
2023-02-23T13:32:43.420Z,2.63
2023-02-23T13:35:21.785Z,2.78
2023-02-23T13:38:14.532Z,2.92
2023-02-23T13:40:48.287Z,2.89
2023-02-23T13:43:40.718Z,2.77
2023-02-23T13:46:59.693Z,2.71
2023-02-23T13:49:49.810Z,2.68
2023-02-23T13:52:27.628Z,2.75
2023-02-23T13:54:59.110Z,2.58
2023-02-23T13:57:28.524Z,2.73
2023-02-23T13:59:58.205Z,2.69
2023-02-23T14:02:34.913Z,2.68
2023-02-23T14:05:17.330Z,2.84
2023-02-23T14:07:49.485Z,2.98
2023-02-23T14:10:23.158Z,3.07
2023-02-23T14:13:18.767Z,3.11
2023-02-23T14:16:15.349Z,3.25
2023-02-23T14:18:55.559Z,3.24
2023-02-23T14:21:57.362Z,3.29
2023-02-23T14:24:27.763Z,3.18
2023-02-23T14:27:05.494Z,3.31
2023-02-23T14:30:08.698Z,3.27
2023-02-23T14:32:41.486Z,3.27
2023-02-23T14:35:38.540Z,3.50
2023-02-23T14:38:08.689Z,3.56
2023-02-23T14:40:43.153Z,3.54
2023-02-23T14:43:38.800Z,3.78
2023-02-23T14:46:19.711Z,3.74
2023-02-23T14:49:10.684Z,3.93
2023-02-23T14:51:43.089Z,3.97
2023-02-23T14:54:19.094Z,4.08
2023-02-23T14:56:57.093Z,4.01
2023-02-23T14:59:52.654Z,4.16
2023-02-23T15:02:25.401Z,4.09
2023-02-23T15:04:55.212Z,4.50
2023-02-23T15:07:32.562Z,4.31
2023-02-23T15:10:11.818Z,4.40
2023-02-23T15:12:41.141Z,4.44
2023-02-23T15:15:18.712Z,4.45
2023-02-23T15:17:50.669Z,4.60
2023-02-23T15:20:32.983Z,4.63
2023-02-23T15:23:05.035Z,4.77
2023-02-23T15:25:40.954Z,4.69
2023-02-23T15:28:25.784Z,4.63
2023-02-23T15:31:13.142Z,4.60
2023-02-23T15:33:43.628Z,4.71
2023-02-23T15:36:23.500Z,4.86
2023-02-23T15:38:57.768Z,4.87
2023-02-23T15:41:33.678Z,4.97
2023-02-23T15:44:21.820Z,5.05
2023-02-23T15:46:58.744Z,5.18
2023-02-23T15:49:38.183Z,4.94
2023-02-23T15:52:12.521Z,5.01
2023-02-23T15:54:56.140Z,5.12
2023-02-23T15:57:32.454Z,5.24
2023-02-23T16:00:12.193Z,5.19
2023-02-23T16:02:42.459Z,5.11
2023-02-23T16:05:22.457Z,5.24
2023-02-23T16:08:09.327Z,5.37
2023-02-23T16:10:46.951Z,5.38
2023-02-23T16:13:22.536Z,5.37
2023-02-23T16:15:55.233Z,5.52
2023-02-23T16:18:39.076Z,5.33
2023-02-23T16:21:13.181Z,5.32
2023-02-23T16:23:46.338Z,5.31
2023-02-23T16:26:26.230Z,5.30
2023-02-23T16:29:00.928Z,5.38
2023-02-23T16:32:05.218Z,5.37
2023-02-23T16:34:37.939Z,5.46
2023-02-23T16:37:19.733Z,5.52
2023-02-23T16:39:49.891Z,5.64
2023-02-23T16:42:36.596Z,5.57
2023-02-23T16:45:07.961Z,5.63
2023-02-23T16:47:44.741Z,5.57
2023-02-23T16:50:21.119Z,5.76
2023-02-23T16:52:54.403Z,5.63
2023-02-23T16:55:28.081Z,5.68
2023-02-23T16:57:59.839Z,5.59
2023-02-23T17:00:31.444Z,5.67
2023-02-23T17:03:03.490Z,5.71
2023-02-23T17:05:35.659Z,5.74
2023-02-23T17:08:07.027Z,5.66
2023-02-23T17:10:38.480Z,5.78
2023-02-23T17:13:20.809Z,5.93
2023-02-23T17:15:52.279Z,5.83
2023-02-23T17:18:32.788Z,6.03
2023-02-23T17:21:12.278Z,6.15
2023-02-23T17:23:52.448Z,6.03
2023-02-23T17:26:26.133Z,5.96
2023-02-23T17:28:56.320Z,6.01
2023-02-23T17:31:34.952Z,6.02
2023-02-23T17:34:06.571Z,5.90
2023-02-23T17:36:38.012Z,5.98
2023-02-23T17:39:11.283Z,5.96
2023-02-23T17:41:43.972Z,5.89
2023-02-23T17:44:14.892Z,5.97
2023-02-23T17:46:45.271Z,5.98
2023-02-23T17:49:15.055Z,5.97
2023-02-23T17:51:46.190Z,6.00
2023-02-23T17:54:18.136Z,5.93
2023-02-23T17:56:49.934Z,6.08
2023-02-23T17:59:21.129Z,5.86
2023-02-23T18:01:52.597Z,6.00
2023-02-23T18:04:22.281Z,6.11
2023-02-23T18:06:53.271Z,6.04
2023-02-23T18:09:25.370Z,6.24
2023-02-23T18:12:04.339Z,6.12
2023-02-23T18:14:39.557Z,6.07
2023-02-23T18:17:11.380Z,6.05
2023-02-23T18:19:47.602Z,6.05
2023-02-23T18:22:19.277Z,6.07
2023-02-23T18:24:50.034Z,6.19
2023-02-23T18:27:20.452Z,5.97
2023-02-23T18:29:56.088Z,6.24
2023-02-23T18:32:29.473Z,6.29
2023-02-23T18:35:09.471Z,6.22
2023-02-23T18:37:45.127Z,6.29
2023-02-23T18:40:29.804Z,6.31
2023-02-23T18:43:01.058Z,6.37
2023-02-23T18:45:32.524Z,6.38
2023-02-23T18:48:03.685Z,6.30
2023-02-23T18:50:39.560Z,6.41
2023-02-23T18:53:12.571Z,6.39
2023-02-23T18:55:45.794Z,6.44
2023-02-23T18:58:15.618Z,6.31
2023-02-23T19:00:45.431Z,6.38
2023-02-23T19:03:19.530Z,6.37
2023-02-23T19:05:55.776Z,6.60
2023-02-23T19:08:25.499Z,6.61
2023-02-23T19:10:58.817Z,6.59
2023-02-23T19:13:29.775Z,6.54
2023-02-23T19:16:06.891Z,6.74
2023-02-23T19:18:40.195Z,6.56
2023-02-23T19:21:11.289Z,6.61
2023-02-23T19:23:44.934Z,6.56
2023-02-23T19:26:18.443Z,6.73
2023-02-23T19:28:57.428Z,6.58
2023-02-23T19:31:27.288Z,6.64
2023-02-23T19:33:57.951Z,6.69
2023-02-23T19:36:31.092Z,6.52
2023-02-23T19:39:16.496Z,6.63
2023-02-23T19:41:47.954Z,6.57
2023-02-23T19:44:19.029Z,6.63
2023-02-23T19:46:50.373Z,6.66
2023-02-23T19:49:20.158Z,6.77
2023-02-23T19:51:53.068Z,6.75
2023-02-23T19:54:27.667Z,6.57
2023-02-23T20:00:40.418Z,6.93
2023-02-23T20:03:30.611Z,6.90
2023-02-23T20:06:00.383Z,6.78
2023-02-23T20:08:31.328Z,6.97
2023-02-23T20:11:12.781Z,6.94
2023-02-23T20:13:42.757Z,6.97
2023-02-23T20:16:15.596Z,7.07
2023-02-23T20:18:48.534Z,7.19
2023-02-23T20:21:20.109Z,7.29
2023-02-23T20:23:50.881Z,7.30
2023-02-23T20:26:29.710Z,7.60
2023-02-23T20:29:00.431Z,7.94
2023-02-23T20:31:31.584Z,7.88
2023-02-23T20:34:05.297Z,7.88
2023-02-23T20:36:36.335Z,7.80
2023-02-23T20:39:12.207Z,7.91
2023-02-23T20:41:46.000Z,7.69
2023-02-23T20:44:16.008Z,7.75
2023-02-23T20:46:47.565Z,7.84
2023-02-23T20:49:19.517Z,7.86
2023-02-23T20:51:50.506Z,7.95
2023-02-23T20:54:22.126Z,8.17
2023-02-23T20:56:59.842Z,8.12
2023-02-23T20:59:34.192Z,8.24
2023-02-23T21:02:07.325Z,8.20
2023-02-23T21:04:39.509Z,8.14
2023-02-23T21:07:10.636Z,8.20
2023-02-23T21:09:50.447Z,8.15
2023-02-23T21:12:20.652Z,8.21
2023-02-23T21:14:53.587Z,8.36
2023-02-23T21:17:24.353Z,8.34
2023-02-23T21:19:54.235Z,8.29
2023-02-23T21:22:26.818Z,8.28
2023-02-23T21:24:57.239Z,8.41
2023-02-23T21:27:31.399Z,8.31
2023-02-23T21:30:06.089Z,8.31
2023-02-23T21:32:42.706Z,8.29
2023-02-23T21:35:15.434Z,8.41
2023-02-23T21:37:48.540Z,8.40
2023-02-23T21:40:21.523Z,8.39
2023-02-23T21:42:52.332Z,8.50
2023-02-23T21:45:24.236Z,8.43
2023-02-23T21:47:54.626Z,8.37
2023-02-23T21:50:25.694Z,8.31
2023-02-23T21:52:59.185Z,8.34
2023-02-23T21:55:29.903Z,8.43
2023-02-23T21:58:04.448Z,8.29
2023-02-23T22:00:36.444Z,8.24
2023-02-23T22:03:11.505Z,8.48
2023-02-23T22:05:45.324Z,8.48
2023-02-23T22:08:18.872Z,8.42
2023-02-23T22:10:50.835Z,8.23
2023-02-23T22:13:21.961Z,8.06
2023-02-23T22:15:52.649Z,8.03
2023-02-23T22:18:25.336Z,8.25
2023-02-23T22:21:00.506Z,7.96
2023-02-23T22:23:36.584Z,7.98
2023-02-23T22:26:07.184Z,8.04
2023-02-23T22:28:37.709Z,7.92
2023-02-23T22:31:12.557Z,7.73
2023-02-23T22:33:45.384Z,7.88
2023-02-23T22:36:19.755Z,8.01
2023-02-23T22:38:50.797Z,8.22
2023-02-23T22:41:22.298Z,8.18
2023-02-23T22:43:53.438Z,8.23
2023-02-23T22:46:24.027Z,8.14
2023-02-23T22:48:54.556Z,8.16
2023-02-23T22:51:25.447Z,8.11
2023-02-23T22:53:56.249Z,8.10
2023-02-23T22:56:26.001Z,8.15
2023-02-23T22:58:56.714Z,8.01
2023-02-23T23:01:30.236Z,8.09
2023-02-23T23:04:02.207Z,8.09
2023-02-23T23:06:34.067Z,8.05
2023-02-23T23:09:08.354Z,8.05
2023-02-23T23:11:38.765Z,8.05
2023-02-23T23:14:10.956Z,8.13
2023-02-23T23:16:53.694Z,8.11
2023-02-23T23:19:26.630Z,8.02
2023-02-23T23:21:56.472Z,8.17
2023-02-23T23:24:28.327Z,7.94
2023-02-23T23:27:09.039Z,8.17
2023-02-23T23:29:43.391Z,8.18
2023-02-23T23:32:20.384Z,8.22
2023-02-23T23:34:51.484Z,8.16
2023-02-23T23:37:23.350Z,8.28
2023-02-23T23:40:00.280Z,8.36
2023-02-23T23:42:31.072Z,8.55
2023-02-23T23:45:01.451Z,8.22
2023-02-23T23:47:35.467Z,8.41
2023-02-23T23:50:15.612Z,8.42
2023-02-23T23:52:46.675Z,8.40
2023-02-23T23:55:18.593Z,8.27
2023-02-23T23:57:49.964Z,8.19
